»·PEaware :: N701GT KLAX-KSNA

N701GT :: KLAX-KSNA

FLIGHT INFORMATION

Flight Status: Arrived
Operator: Privately registered:
United States
More flights under this callsign
Pilot: Anonymous 17564 (17564)
Aircraft: CESSNA 172 SKYHAWK
(C172)
More flights by this aircraft type
Origin: KLAX Los Angeles Intl
United States
Destination: KSNA John Wayne-Orange Co
United States
More flights between these airports :: More routes between these airports
Route: SLI8 SLI
File this flight plan on PilotEdge
Remarks: I6 Rating / / NOAA Real World Weather
Altitude:
(Current/Filed)
4,000ft
Speed:
(Current/Filed)
110kts
Departed: 11-Jun-18 06:41 PM
Arrived: 11-Jun-18 07:55 PM
Distance/Time
Traveled:
31nm/1:14
Distance/Time
To Go:
Arrived

Flight Plot

Page will automatically refresh every two minutes.


Map Options




Map Legend


Flown Route
Filed Route
Departure Airport
Arrival Airport
Navaid (VOR, NDB)
Fix

Horizontal Profiles

Position Reports

Time Latitude Longitude Heading Altitude Ground
Speed
11-Jun-18 18:13 33.933721 -118.394249 89 109ft 0kts
11-Jun-18 18:14 33.933721 -118.394249 89 109ft 0kts
11-Jun-18 18:15 33.933721 -118.394249 89 109ft 0kts
11-Jun-18 18:16 33.933721 -118.394249 89 109ft 0kts
11-Jun-18 18:17 33.933721 -118.394249 89 109ft 0kts
11-Jun-18 18:18 33.933721 -118.394249 89 109ft 0kts
11-Jun-18 18:19 33.933721 -118.394249 89 109ft 0kts
11-Jun-18 18:20 33.933721 -118.394249 89 109ft 0kts
11-Jun-18 18:21 33.933721 -118.394249 89 109ft 0kts
11-Jun-18 18:22 33.933721 -118.394249 89 109ft 0kts
11-Jun-18 18:23 33.933721 -118.394249 89 109ft 0kts
11-Jun-18 18:24 33.933721 -118.394249 89 109ft 0kts
11-Jun-18 18:25 33.933721 -118.394249 89 109ft 0kts
11-Jun-18 18:26 33.933721 -118.394249 89 109ft 0kts
11-Jun-18 18:27 33.933721 -118.394249 89 109ft 0kts
11-Jun-18 18:28 33.933721 -118.394249 89 109ft 0kts
11-Jun-18 18:29 33.933721 -118.394249 89 109ft 0kts
11-Jun-18 18:30 33.933721 -118.394249 89 109ft 0kts
11-Jun-18 18:31 33.933721 -118.394249 89 109ft 0kts
11-Jun-18 18:32 33.933721 -118.394249 89 109ft 0kts
11-Jun-18 18:33 33.933813 -118.394240 354 109ft 7kts
11-Jun-18 18:34 33.934090 -118.393981 13 109ft 0kts
11-Jun-18 18:35 33.934522 -118.393875 1 109ft 9kts
11-Jun-18 18:36 33.935495 -118.388926 84 109ft 21kts
11-Jun-18 18:37 33.936427 -118.382769 8 109ft 3kts
11-Jun-18 18:38 33.936434 -118.382768 4 109ft 0kts
11-Jun-18 18:39 33.936434 -118.382768 4 109ft 0kts
11-Jun-18 18:40 33.937130 -118.382900 329 109ft 11kts
11-Jun-18 18:41 33.935662 -118.406797 262 557ft 97kts
11-Jun-18 18:42 33.931962 -118.440353 245 1160ft 103kts
11-Jun-18 18:43 33.907994 -118.459298 212 1804ft 103kts
11-Jun-18 18:44 33.883148 -118.476211 212 2509ft 100kts
11-Jun-18 18:45 33.861605 -118.490962 212 3133ft 99kts
11-Jun-18 18:46 33.835608 -118.508464 212 3899ft 97kts
11-Jun-18 18:47 33.810063 -118.525205 212 4000ft 109kts
11-Jun-18 18:48 33.783334 -118.542902 212 3999ft 110kts
11-Jun-18 18:49 33.756430 -118.561124 212 3999ft 110kts
11-Jun-18 18:50 33.729715 -118.579088 212 3999ft 110kts
11-Jun-18 18:51 33.702555 -118.596352 213 3999ft 109kts
11-Jun-18 18:52 33.675727 -118.613270 212 3999ft 108kts
11-Jun-18 18:53 33.649900 -118.629608 212 3999ft 108kts
11-Jun-18 18:54 33.623117 -118.648475 212 4054ft 110kts
11-Jun-18 18:55 33.596816 -118.667574 212 4054ft 111kts
11-Jun-18 18:56 33.571051 -118.686283 213 4054ft 111kts
11-Jun-18 18:57 33.544628 -118.705451 213 4054ft 111kts
11-Jun-18 18:59 33.933721 -118.394249 89 109ft 0kts
11-Jun-18 19:00 33.933721 -118.394249 89 109ft 0kts
11-Jun-18 19:01 33.933721 -118.394249 89 109ft 0kts
11-Jun-18 19:02 33.933721 -118.394249 89 109ft 0kts
11-Jun-18 19:03 33.933721 -118.394249 89 109ft 0kts
11-Jun-18 19:04 33.933721 -118.394249 89 109ft 0kts
11-Jun-18 19:05 33.933721 -118.394249 89 109ft 0kts
11-Jun-18 19:06 33.933721 -118.394249 89 109ft 0kts
11-Jun-18 19:07 33.933838 -118.394147 358 109ft 0kts
11-Jun-18 19:08 33.934999 -118.393609 68 109ft 18kts
11-Jun-18 19:09 33.935893 -118.385001 83 109ft 21kts
11-Jun-18 19:10 33.936349 -118.382803 33 109ft 0kts
11-Jun-18 19:11 33.937201 -118.384254 262 109ft 36kts
11-Jun-18 19:12 33.934905 -118.410194 261 762ft 95kts
11-Jun-18 19:13 33.929906 -118.442253 224 1464ft 101kts
11-Jun-18 19:14 33.905677 -118.459812 211 2166ft 102kts
11-Jun-18 19:15 33.881380 -118.476722 212 2864ft 100kts
11-Jun-18 19:16 33.856950 -118.490919 172 3558ft 102kts
11-Jun-18 19:17 33.834001 -118.467744 141 3998ft 116kts
11-Jun-18 19:18 33.810172 -118.441433 141 4000ft 116kts
11-Jun-18 19:19 33.786304 -118.415172 141 4000ft 116kts
11-Jun-18 19:20 33.762366 -118.388837 141 4000ft 116kts
11-Jun-18 19:21 33.738387 -118.362516 141 4000ft 118kts
11-Jun-18 19:22 33.713976 -118.335857 141 4000ft 118kts
11-Jun-18 19:23 33.689564 -118.309206 141 4000ft 119kts
11-Jun-18 19:24 33.665123 -118.282522 141 4000ft 119kts
11-Jun-18 19:25 33.663301 -118.248523 49 4000ft 118kts
11-Jun-18 19:26 33.682502 -118.216920 50 3991ft 116kts
11-Jun-18 19:27 33.701707 -118.185842 50 3991ft 115kts
11-Jun-18 19:28 33.721356 -118.154385 50 3991ft 119kts
11-Jun-18 19:29 33.741267 -118.122643 51 3981ft 119kts
11-Jun-18 19:30 33.761250 -118.090803 51 3991ft 120kts
11-Jun-18 19:31 33.781415 -118.058653 50 3991ft 120kts
11-Jun-18 19:32 33.796965 -118.023154 63 3982ft 120kts
11-Jun-18 19:33 33.811402 -117.987295 64 3981ft 119kts
11-Jun-18 19:34 33.825895 -117.951420 65 3981ft 119kts
11-Jun-18 19:35 33.840277 -117.915815 62 3982ft 118kts
11-Jun-18 19:36 33.854216 -117.880985 63 3981ft 117kts
11-Jun-18 19:37 33.868199 -117.845879 62 3981ft 115kts
11-Jun-18 19:38 33.881509 -117.810823 64 3981ft 115kts
11-Jun-18 19:39 33.893886 -117.776629 64 3981ft 106kts
11-Jun-18 19:40 33.905421 -117.744510 63 3981ft 104kts
11-Jun-18 19:41 33.920151 -117.715248 31 3981ft 105kts
11-Jun-18 19:42 33.941352 -117.700673 4 3980ft 104kts
11-Jun-18 19:43 33.942399 -117.723140 189 3509ft 105kts
11-Jun-18 19:44 33.914606 -117.717740 210 3480ft 103kts
11-Jun-18 19:45 33.888264 -117.733688 212 3481ft 105kts
11-Jun-18 19:46 33.862454 -117.750111 213 3481ft 105kts
11-Jun-18 19:47 33.835840 -117.767067 210 3418ft 112kts
11-Jun-18 19:48 33.809282 -117.784013 210 2888ft 101kts
11-Jun-18 19:49 33.785272 -117.799257 209 2366ft 96kts
11-Jun-18 19:50 33.757794 -117.816730 208 1757ft 97kts
11-Jun-18 19:51 33.733977 -117.831866 208 1230ft 89kts
11-Jun-18 19:52 33.717880 -117.842058 208 881ft 71kts
11-Jun-18 19:53 33.700428 -117.853125 208 504ft 71kts
11-Jun-18 19:54 33.685161 -117.862796 208 177ft 60kts
11-Jun-18 19:55 33.677527 -117.867053 119 60ft 0kts
11-Jun-18 19:56 33.676473 -117.865023 176 60ft 13kts
11-Jun-18 19:57 33.673512 -117.866852 210 60ft 13kts
11-Jun-18 19:58 33.670776 -117.868237 217 60ft 0kts
11-Jun-18 19:59 33.670776 -117.868237 217 60ft 0kts
11-Jun-18 20:00 33.670776 -117.868237 217 60ft 0kts
11-Jun-18 20:01 33.670776 -117.868237 217 60ft 0kts
11-Jun-18 20:02 33.670776 -117.868237 217 60ft 0kts
11-Jun-18 20:03 33.670776 -117.868237 217 60ft 0kts
11-Jun-18 20:04 33.670776 -117.868237 217 60ft 0kts
11-Jun-18 20:05 33.670776 -117.868237 217 60ft 0kts
11-Jun-18 20:06 33.670776 -117.868237 217 60ft 0kts
11-Jun-18 20:07 33.670776 -117.868237 217 60ft 0kts
11-Jun-18 20:08 33.670776 -117.868237 217 60ft 0kts
11-Jun-18 20:09 33.670776 -117.868237 217 60ft 0kts

Navigation Log

Ident Type
Flight plan parsing failed, navigation log unavailable